Time;durP1;ratioP1;P1;durP2;ratioP2;P2;SDS_P1;SDS_P2;PMS_P1;PMS_P2;Temp;Humidity;BMP_temperature;BMP_pressure;BME280_temperature;BME280_humidity;BME280_pressure;Samples;Min_cycle;Max_cycle;Signal;HPM_P1;HPM_P2
2023/05/03 00:01:14;;;;;;;3.75;2.45;;;4.10;99.90;;;;;;4948589;28;20046;-61
2023/05/03 00:03:42;;;;;;;4.70;1.83;;;4.10;99.90;;;;;;4940425;28;20067;-61
2023/05/03 00:06:13;;;;;;;4.82;2.75;;;4.10;99.90;;;;;;4952896;28;20445;-65
2023/05/03 00:08:40;;;;;;;4.22;1.83;;;4.10;99.90;;;;;;4943665;28;20139;-76
2023/05/03 00:11:08;;;;;;;2.30;2.10;;;4.10;99.90;;;;;;4948656;28;20142;-61
2023/05/03 00:13:35;;;;;;;5.65;2.33;;;4.10;99.90;;;;;;4942247;28;20047;-67
2023/05/03 00:16:02;;;;;;;3.42;2.35;;;4.10;99.90;;;;;;4941291;28;20039;-67
2023/05/03 00:18:29;;;;;;;3.67;1.73;;;4.10;99.90;;;;;;4941936;28;20491;-74
2023/05/03 00:20:58;;;;;;;2.65;2.17;;;4.10;99.90;;;;;;4945165;28;20145;-64
2023/05/03 00:23:27;;;;;;;4.88;2.30;;;4.10;99.90;;;;;;4945027;28;20062;-69
2023/05/03 00:25:57;;;;;;;3.95;2.40;;;4.10;99.90;;;;;;4940363;28;20856;-61
2023/05/03 00:28:25;;;;;;;6.13;3.22;;;4.00;99.90;;;;;;4939486;28;20055;-63
2023/05/03 00:30:52;;;;;;;3.92;1.92;;;4.10;99.90;;;;;;4939932;28;20055;-63
2023/05/03 00:33:20;;;;;;;4.70;2.15;;;4.10;99.90;;;;;;4957334;28;20398;-61
2023/05/03 00:35:48;;;;;;;3.22;2.60;;;4.10;99.90;;;;;;4956961;28;20051;-65
2023/05/03 00:38:15;;;;;;;5.90;2.67;;;4.10;99.90;;;;;;4928101;28;20082;-61
2023/05/03 00:40:42;;;;;;;3.42;2.58;;;4.10;99.90;;;;;;4938018;28;20040;-66
2023/05/03 00:43:12;;;;;;;3.50;2.45;;;4.20;99.90;;;;;;4945094;28;20632;-61
2023/05/03 00:45:39;;;;;;;6.05;2.42;;;4.20;99.90;;;;;;4942999;28;20146;-65
2023/05/03 00:48:06;;;;;;;3.55;2.15;;;4.20;99.90;;;;;;4953922;28;20054;-61
2023/05/03 00:50:35;;;;;;;2.72;2.15;;;4.20;99.90;;;;;;4939849;28;20130;-66
2023/05/03 00:53:02;;;;;;;5.18;2.78;;;4.20;99.90;;;;;;4939868;28;20478;-66
2023/05/03 00:55:32;;;;;;;2.28;2.08;;;4.20;99.90;;;;;;4934562;28;20611;-72
2023/05/03 00:57:59;;;;;;;2.78;2.58;;;4.20;99.90;;;;;;4941216;28;20504;-65
2023/05/03 01:00:26;;;;;;;2.58;1.90;;;4.20;99.90;;;;;;4942791;28;20055;-75
2023/05/03 01:02:53;;;;;;;3.50;2.42;;;4.30;99.90;;;;;;4942038;28;20069;-60
2023/05/03 01:05:21;;;;;;;3.45;2.58;;;4.20;99.90;;;;;;4947818;28;20071;-64
2023/05/03 01:08:14;;;;;;;4.25;2.60;;;4.30;99.90;;;;;;4940829;28;20512;-69
2023/05/03 01:10:47;;;;;;;5.43;2.42;;;4.30;99.90;;;;;;4937638;28;20127;-62
2023/05/03 01:13:34;;;;;;;5.22;3.55;;;4.30;99.90;;;;;;4942582;28;20576;-61
2023/05/03 01:16:10;;;;;;;3.28;2.13;;;4.30;99.90;;;;;;4927217;29;20151;-66
2023/05/03 01:18:39;;;;;;;5.97;2.92;;;4.20;99.90;;;;;;4943614;28;20058;-61
2023/05/03 01:21:08;;;;;;;4.05;2.50;;;4.20;99.90;;;;;;4930930;28;20545;-63
2023/05/03 01:23:39;;;;;;;3.35;2.47;;;4.20;99.90;;;;;;4936964;28;20048;-65
2023/05/03 01:26:19;;;;;;;;;;;4.20;99.90;;;;;;4947131;28;20051;-64
2023/05/03 01:28:46;;;;;;;5.13;2.25;;;4.20;99.90;;;;;;4946806;28;20643;-69
2023/05/03 01:31:37;;;;;;;3.50;2.17;;;4.10;99.90;;;;;;4957653;28;20130;-69
2023/05/03 01:34:20;;;;;;;4.22;2.30;;;4.10;99.90;;;;;;4938600;28;20051;-71
2023/05/03 01:36:49;;;;;;;7.95;2.10;;;4.00;99.90;;;;;;4940582;28;20063;-65
2023/05/03 01:39:23;;;;;;;3.63;2.10;;;4.00;99.90;;;;;;4956061;28;20489;-66
2023/05/03 01:41:51;;;;;;;6.38;2.05;;;4.00;99.90;;;;;;4940706;28;20140;-69
2023/05/03 01:44:20;;;;;;;4.20;2.08;;;4.00;99.90;;;;;;4942771;28;20097;-67
2023/05/03 01:46:47;;;;;;;2.53;2.08;;;3.90;99.90;;;;;;4955793;28;20059;-65
2023/05/03 01:49:14;;;;;;;2.22;2.05;;;3.90;99.90;;;;;;4941534;28;20051;-65
2023/05/03 01:51:40;;;;;;;4.82;2.70;;;3.90;99.90;;;;;;4942232;28;20150;-64
2023/05/03 01:54:07;;;;;;;4.00;2.15;;;3.90;99.90;;;;;;4943763;28;20067;-64
2023/05/03 01:56:37;;;;;;;2.58;1.63;;;3.90;99.90;;;;;;4953603;28;20073;-70
2023/05/03 01:59:04;;;;;;;3.53;2.63;;;3.80;99.90;;;;;;4950448;28;20051;-65
2023/05/03 02:01:32;;;;;;;4.28;2.17;;;3.80;99.90;;;;;;4939500;28;20119;-69
2023/05/03 02:03:59;;;;;;;3.22;2.92;;;3.80;99.90;;;;;;4942795;28;20106;-66
2023/05/03 02:06:26;;;;;;;3.00;1.88;;;3.70;99.90;;;;;;4950296;28;20051;-66
2023/05/03 02:08:57;;;;;;;2.88;1.67;;;3.60;99.90;;;;;;4955112;28;20145;-65
2023/05/03 02:11:24;;;;;;;2.58;2.00;;;3.60;99.90;;;;;;4938725;28;20043;-67
2023/05/03 02:13:51;;;;;;;3.92;2.05;;;3.50;99.90;;;;;;4956659;28;20581;-68
2023/05/03 02:16:18;;;;;;;3.10;2.28;;;3.50;99.90;;;;;;4941742;28;20526;-63
2023/05/03 02:18:45;;;;;;;2.90;2.17;;;3.50;99.90;;;;;;4941774;28;20051;-63
2023/05/03 02:21:13;;;;;;;2.80;1.98;;;3.40;99.90;;;;;;4945501;28;20051;-65
2023/05/03 02:23:40;;;;;;;2.88;2.17;;;3.40;99.90;;;;;;4942711;28;20127;-65
2023/05/03 02:26:07;;;;;;;4.78;3.28;;;3.40;99.90;;;;;;4942131;28;20082;-68
2023/05/03 02:28:34;;;;;;;2.65;2.45;;;3.40;99.90;;;;;;4939101;28;20072;-67
2023/05/03 02:31:01;;;;;;;3.60;2.33;;;3.30;99.90;;;;;;4930872;28;20074;-64
2023/05/03 02:33:28;;;;;;;1.83;1.70;;;3.20;99.90;;;;;;4930915;28;20048;-66
2023/05/03 02:35:55;;;;;;;2.38;2.03;;;3.20;99.90;;;;;;4944279;28;20071;-63
2023/05/03 02:38:22;;;;;;;4.40;2.22;;;3.20;99.90;;;;;;4941629;28;20628;-66
2023/05/03 02:40:49;;;;;;;3.53;2.40;;;3.10;99.90;;;;;;4957358;28;20570;-67
2023/05/03 02:43:17;;;;;;;3.67;2.20;;;3.10;99.90;;;;;;4941844;28;20126;-66
2023/05/03 02:45:44;;;;;;;3.55;2.38;;;3.10;99.90;;;;;;4954136;28;20480;-62
2023/05/03 02:48:11;;;;;;;2.75;2.30;;;3.10;99.90;;;;;;4953322;28;20067;-65
2023/05/03 02:50:39;;;;;;;4.53;2.70;;;3.10;99.90;;;;;;4955080;28;20138;-64
2023/05/03 02:53:06;;;;;;;5.55;2.22;;;3.10;99.90;;;;;;4942482;28;20691;-63
2023/05/03 02:55:34;;;;;;;3.95;2.30;;;3.10;99.90;;;;;;4955709;28;20083;-62
2023/05/03 02:58:01;;;;;;;5.07;2.53;;;3.10;99.90;;;;;;4960347;28;20066;-67
2023/05/03 03:00:28;;;;;;;3.17;2.67;;;3.10;99.90;;;;;;4961988;28;20057;-68
2023/05/03 03:02:55;;;;;;;5.20;2.63;;;3.10;99.90;;;;;;4943867;28;20138;-67
2023/05/03 03:05:22;;;;;;;3.65;2.60;;;3.10;99.90;;;;;;4939466;29;20474;-65
2023/05/03 03:07:50;;;;;;;4.93;2.20;;;3.10;99.90;;;;;;4950095;28;20048;-64
2023/05/03 03:10:17;;;;;;;3.88;2.00;;;3.10;99.90;;;;;;4957530;28;20066;-61
2023/05/03 03:12:45;;;;;;;3.47;2.58;;;3.10;99.90;;;;;;4961004;28;20055;-61
2023/05/03 03:15:21;;;;;;;3.28;2.17;;;3.00;99.90;;;;;;4964152;28;20753;-62
2023/05/03 03:17:49;;;;;;;5.28;3.28;;;3.10;99.90;;;;;;4958685;28;20081;-63
2023/05/03 03:20:16;;;;;;;3.97;2.38;;;3.10;99.90;;;;;;4956666;28;20047;-64
2023/05/03 03:22:46;;;;;;;4.57;2.83;;;3.10;99.90;;;;;;4944133;28;20193;-61
2023/05/03 03:25:13;;;;;;;5.93;2.63;;;3.10;99.90;;;;;;4965630;28;20059;-62
2023/05/03 03:27:40;;;;;;;4.65;2.50;;;3.20;99.90;;;;;;4945968;28;20090;-64
2023/05/03 03:30:09;;;;;;;5.28;2.63;;;3.30;99.90;;;;;;4957929;28;20059;-63
2023/05/03 03:32:44;;;;;;;3.38;2.05;;;3.40;99.90;;;;;;4960774;28;20055;-69
2023/05/03 03:35:18;;;;;;;4.75;2.15;;;3.50;99.90;;;;;;4948232;28;20043;-61
2023/05/03 03:37:45;;;;;;;9.73;2.08;;;3.50;99.90;;;;;;4947575;28;20469;-68
2023/05/03 03:40:12;;;;;;;5.55;2.45;;;3.70;99.90;;;;;;4955301;28;20501;-70
2023/05/03 03:42:39;;;;;;;4.03;2.10;;;3.80;99.90;;;;;;4953861;28;20386;-65
2023/05/03 03:45:07;;;;;;;4.35;2.08;;;3.80;99.90;;;;;;4953944;28;20492;-67
2023/05/03 03:47:33;;;;;;;4.38;2.45;;;3.90;99.90;;;;;;4944242;28;20095;-68
2023/05/03 03:50:00;;;;;;;3.28;1.92;;;3.90;99.90;;;;;;4957821;28;20130;-69
2023/05/03 03:52:30;;;;;;;3.08;1.77;;;4.00;99.90;;;;;;4944885;28;20051;-69
2023/05/03 03:54:57;;;;;;;3.30;2.08;;;4.00;99.90;;;;;;4939329;28;20753;-68
2023/05/03 03:57:25;;;;;;;1.80;1.50;;;4.00;99.90;;;;;;4924969;29;20055;-61
2023/05/03 03:59:52;;;;;;;2.88;1.92;;;4.10;99.90;;;;;;4937078;28;20150;-62
2023/05/03 04:02:20;;;;;;;2.55;1.70;;;4.20;99.90;;;;;;4955564;28;20042;-62
2023/05/03 04:04:47;;;;;;;2.10;1.35;;;4.30;99.90;;;;;;4959934;28;20102;-68
2023/05/03 04:07:16;;;;;;;2.67;2.10;;;4.30;99.90;;;;;;4945598;28;20529;-75
2023/05/03 04:09:43;;;;;;;1.98;1.40;;;4.40;99.90;;;;;;4956611;28;20141;-65
2023/05/03 04:12:11;;;;;;;2.28;2.08;;;4.40;99.90;;;;;;4956419;28;20055;-63
2023/05/03 04:14:39;;;;;;;3.08;1.80;;;4.50;99.90;;;;;;4954695;28;20059;-65
2023/05/03 04:17:07;;;;;;;1.70;1.58;;;4.50;99.90;;;;;;4947455;28;20764;-63
2023/05/03 04:19:34;;;;;;;2.25;1.50;;;4.60;99.90;;;;;;4942089;28;20115;-64
2023/05/03 04:22:02;;;;;;;5.57;1.73;;;4.60;99.90;;;;;;4957512;28;20115;-67
2023/05/03 04:24:29;;;;;;;1.60;1.45;;;4.70;99.90;;;;;;4952838;28;20091;-63
2023/05/03 04:26:57;;;;;;;1.92;1.40;;;4.80;99.90;;;;;;4960007;28;20131;-63
2023/05/03 04:29:28;;;;;;;2.78;1.48;;;4.80;99.90;;;;;;4944082;28;20051;-70
2023/05/03 04:31:56;;;;;;;5.78;1.52;;;4.90;99.90;;;;;;4938179;28;20111;-69
2023/05/03 04:34:23;;;;;;;2.72;1.25;;;4.90;99.90;;;;;;4950140;28;20059;-67
2023/05/03 04:36:53;;;;;;;2.45;1.75;;;5.00;99.90;;;;;;4956953;28;20122;-68
2023/05/03 04:39:21;;;;;;;4.63;1.50;;;5.10;99.90;;;;;;4954974;28;20062;-69
2023/05/03 04:41:48;;;;;;;3.17;1.50;;;5.30;99.90;;;;;;4940946;28;20549;-64
2023/05/03 04:44:16;;;;;;;5.03;2.05;;;5.30;99.90;;;;;;4939930;28;20105;-64
2023/05/03 04:46:44;;;;;;;1.38;1.13;;;5.40;99.90;;;;;;4939811;28;20087;-63
2023/05/03 04:49:14;;;;;;;2.22;1.38;;;5.50;99.90;;;;;;4955609;28;20070;-69
2023/05/03 04:51:41;;;;;;;1.67;1.02;;;5.50;99.90;;;;;;4955567;28;20134;-66
2023/05/03 04:54:08;;;;;;;6.57;1.92;;;5.60;99.90;;;;;;4942100;28;20079;-66
2023/05/03 04:56:35;;;;;;;2.67;1.67;;;5.60;99.90;;;;;;4942850;28;20067;-63
2023/05/03 04:59:10;;;;;;;2.10;1.83;;;5.70;99.90;;;;;;4958405;28;20051;-65
2023/05/03 05:01:37;;;;;;;4.03;1.80;;;5.70;99.90;;;;;;4945571;28;20781;-67
2023/05/03 05:04:05;;;;;;;1.38;1.27;;;5.70;99.90;;;;;;4946963;28;20489;-68
2023/05/03 05:06:38;;;;;;;2.15;1.52;;;5.70;99.90;;;;;;4956472;28;20401;-71
2023/05/03 05:09:06;;;;;;;1.85;1.45;;;5.70;99.90;;;;;;4955001;28;20078;-64
2023/05/03 05:11:33;;;;;;;2.22;1.73;;;5.70;99.90;;;;;;4938093;28;20058;-62
2023/05/03 05:14:00;;;;;;;1.90;1.42;;;5.70;99.90;;;;;;4954491;28;20386;-72
2023/05/03 05:16:27;;;;;;;2.10;1.90;;;5.80;99.90;;;;;;4953952;28;20059;-64
2023/05/03 05:18:54;;;;;;;2.67;1.30;;;5.80;99.90;;;;;;4941584;28;20581;-64
2023/05/03 05:21:25;;;;;;;3.95;1.80;;;5.80;99.90;;;;;;4933349;29;21046;-68
2023/05/03 05:23:52;;;;;;;2.83;1.63;;;5.80;99.90;;;;;;4958829;28;20541;-64
2023/05/03 05:26:19;;;;;;;1.88;1.15;;;5.80;99.90;;;;;;4942750;28;20058;-74
2023/05/03 05:28:48;;;;;;;1.48;1.00;;;5.90;99.90;;;;;;4944948;28;20414;-65
2023/05/03 05:31:15;;;;;;;1.73;1.20;;;5.90;99.90;;;;;;4958651;28;20039;-66
2023/05/03 05:33:42;;;;;;;2.92;1.75;;;5.90;99.90;;;;;;4946014;28;20878;-66
2023/05/03 05:36:10;;;;;;;2.95;1.60;;;6.00;99.90;;;;;;4943137;28;20055;-63
2023/05/03 05:38:38;;;;;;;1.65;1.30;;;6.00;99.90;;;;;;4955739;28;20052;-65
2023/05/03 05:41:05;;;;;;;2.60;1.52;;;6.00;99.90;;;;;;4957866;28;20414;-66
2023/05/03 05:43:32;;;;;;;2.17;1.60;;;6.10;99.90;;;;;;4941584;28;20103;-68
2023/05/03 05:45:59;;;;;;;1.95;1.30;;;6.10;99.90;;;;;;4943033;28;20055;-65
2023/05/03 05:48:26;;;;;;;4.88;1.38;;;6.20;99.90;;;;;;4921893;29;20139;-68
2023/05/03 05:50:53;;;;;;;5.85;1.45;;;6.20;99.90;;;;;;4927042;28;20055;-67
2023/05/03 05:53:20;;;;;;;3.95;1.20;;;6.20;99.90;;;;;;4942818;28;20058;-68
2023/05/03 05:55:56;;;;;;;1.85;1.23;;;6.30;99.90;;;;;;4954616;28;20535;-66
2023/05/03 05:58:24;;;;;;;2.63;1.67;;;6.30;99.90;;;;;;4951896;28;20079;-65
2023/05/03 06:01:00;;;;;;;3.65;1.63;;;6.30;99.90;;;;;;4942528;28;20134;-70
2023/05/03 06:03:30;;;;;;;3.20;1.42;;;6.40;99.90;;;;;;4942371;28;20706;-67
2023/05/03 06:05:59;;;;;;;4.32;1.80;;;6.40;99.90;;;;;;4957532;28;20061;-65
2023/05/03 06:08:26;;;;;;;2.08;1.38;;;6.50;99.90;;;;;;4944448;28;20051;-74
2023/05/03 06:10:54;;;;;;;1.70;1.23;;;6.60;99.90;;;;;;4943725;28;20075;-64
2023/05/03 06:13:22;;;;;;;4.18;1.63;;;6.60;99.90;;;;;;4946310;28;20055;-67
2023/05/03 06:15:49;;;;;;;11.48;1.58;;;6.70;99.90;;;;;;4947926;28;20158;-69
2023/05/03 06:18:17;;;;;;;2.55;1.70;;;6.80;99.90;;;;;;4954207;28;20086;-63
2023/05/03 06:20:48;;;;;;;1.67;1.20;;;6.80;99.90;;;;;;4941633;28;20058;-65
2023/05/03 06:23:16;;;;;;;2.35;1.45;;;6.90;99.90;;;;;;4957256;28;20138;-63
2023/05/03 06:25:46;;;;;;;2.15;1.20;;;7.00;99.90;;;;;;4957640;28;20059;-65
2023/05/03 06:28:15;;;;;;;2.40;1.40;;;7.00;99.90;;;;;;4941043;28;20201;-66
2023/05/03 06:30:51;;;;;;;2.17;1.30;;;7.10;99.90;;;;;;4955386;28;20480;-62
2023/05/03 06:33:18;;;;;;;3.17;1.70;;;7.10;99.90;;;;;;4956196;28;20059;-63
2023/05/03 06:35:48;;;;;;;1.88;1.33;;;7.20;99.90;;;;;;4957915;28;20114;-63
2023/05/03 06:38:17;;;;;;;3.17;1.55;;;7.30;99.90;;;;;;4959836;28;20142;-63
2023/05/03 06:40:47;;;;;;;2.72;1.40;;;7.30;99.90;;;;;;4944288;28;20134;-68
2023/05/03 06:43:14;;;;;;;1.95;0.95;;;7.40;99.90;;;;;;4943927;28;20055;-69
2023/05/03 06:45:44;;;;;;;5.47;1.63;;;7.40;99.90;;;;;;4941681;28;20047;-64
2023/05/03 06:48:11;;;;;;;4.32;1.52;;;7.50;99.90;;;;;;4943737;28;20077;-63
2023/05/03 06:50:38;;;;;;;3.42;1.35;;;7.40;99.90;;;;;;4949764;28;20059;-63
2023/05/03 06:53:05;;;;;;;2.63;1.95;;;7.50;99.90;;;;;;4940623;28;20776;-69
2023/05/03 06:55:32;;;;;;;1.80;1.20;;;7.40;99.90;;;;;;4945684;28;20135;-64
2023/05/03 06:57:59;;;;;;;2.42;1.48;;;7.50;99.90;;;;;;4940289;28;20054;-63
2023/05/03 07:00:26;;;;;;;3.13;1.23;;;7.40;99.90;;;;;;4940128;28;20846;-66
2023/05/03 07:02:53;;;;;;;1.85;1.13;;;7.30;99.90;;;;;;4941821;28;20051;-63
2023/05/03 07:05:20;;;;;;;1.25;1.00;;;7.30;99.90;;;;;;4937136;28;20094;-62
2023/05/03 07:07:47;;;;;;;2.60;1.30;;;7.20;99.90;;;;;;4919554;29;20111;-65
2023/05/03 07:10:14;;;;;;;0.95;0.82;;;7.20;99.90;;;;;;4920059;28;20502;-65
2023/05/03 07:12:40;;;;;;;1.60;1.48;;;7.30;99.90;;;;;;4936821;28;20087;-63
2023/05/03 07:15:08;;;;;;;1.52;1.33;;;7.20;99.90;;;;;;4920346;29;20070;-67
2023/05/03 07:17:35;;;;;;;1.20;1.10;;;7.20;99.90;;;;;;4926100;28;20062;-63
2023/05/03 07:20:03;;;;;;;2.22;1.50;;;7.20;99.90;;;;;;4917778;29;20040;-63
2023/05/03 07:22:30;;;;;;;4.93;0.93;;;7.30;99.90;;;;;;4934848;28;20484;-65
2023/05/03 07:24:58;;;;;;;4.55;1.83;;;7.30;99.90;;;;;;4940241;28;20055;-65
2023/05/03 07:27:25;;;;;;;4.63;1.60;;;7.40;99.90;;;;;;4935625;28;20054;-64
2023/05/03 07:29:52;;;;;;;3.38;1.67;;;7.30;99.90;;;;;;4940134;28;20464;-64
2023/05/03 07:32:20;;;;;;;1.42;1.33;;;7.20;99.90;;;;;;4937038;28;20062;-65
2023/05/03 07:34:47;;;;;;;1.40;1.30;;;7.30;99.90;;;;;;4944772;28;20063;-63
2023/05/03 07:37:14;;;;;;;4.70;1.38;;;7.30;99.90;;;;;;4943809;28;20437;-64
2023/05/03 07:39:41;;;;;;;1.30;1.00;;;7.20;99.90;;;;;;4937563;28;20502;-65
2023/05/03 07:42:08;;;;;;;3.35;1.52;;;7.30;99.90;;;;;;4941057;28;20051;-65
2023/05/03 07:44:35;;;;;;;3.67;1.10;;;7.30;99.90;;;;;;4942168;28;20074;-66
2023/05/03 07:47:01;;;;;;;1.58;1.48;;;7.30;99.90;;;;;;4946440;28;20047;-66
2023/05/03 07:49:28;;;;;;;2.25;2.05;;;7.20;99.90;;;;;;4955242;28;20134;-63
2023/05/03 07:51:57;;;;;;;1.70;1.33;;;7.20;99.90;;;;;;4938567;28;20061;-62
2023/05/03 07:54:24;;;;;;;2.65;2.40;;;7.20;99.90;;;;;;4945713;28;20055;-67
2023/05/03 07:56:51;;;;;;;1.85;1.30;;;7.20;99.90;;;;;;4946251;28;20170;-66
2023/05/03 07:59:20;;;;;;;2.67;1.45;;;7.10;99.90;;;;;;4949736;28;20718;-63
2023/05/03 08:01:47;;;;;;;1.77;1.50;;;7.00;99.90;;;;;;4943743;28;20066;-68
2023/05/03 08:04:14;;;;;;;3.35;1.40;;;7.10;99.90;;;;;;4946241;28;20050;-63
2023/05/03 08:06:41;;;;;;;2.88;1.55;;;7.10;99.90;;;;;;4938397;28;20056;-63
2023/05/03 08:09:10;;;;;;;4.20;1.50;;;7.10;99.90;;;;;;4948607;28;20512;-63
2023/05/03 08:11:37;;;;;;;1.70;1.15;;;7.00;99.90;;;;;;4945533;28;20062;-65
2023/05/03 08:14:04;;;;;;;5.82;1.27;;;7.10;99.90;;;;;;4947345;28;20138;-69
2023/05/03 08:16:31;;;;;;;1.80;1.13;;;7.10;99.90;;;;;;4942376;28;20051;-68
2023/05/03 08:18:58;;;;;;;2.78;1.58;;;7.20;99.90;;;;;;4943291;28;20042;-64
2023/05/03 08:21:25;;;;;;;1.52;1.38;;;7.30;99.90;;;;;;4941712;28;20039;-68
2023/05/03 08:23:52;;;;;;;1.90;1.42;;;7.30;99.90;;;;;;4941911;28;20312;-63
2023/05/03 08:26:20;;;;;;;4.25;1.67;;;7.40;99.90;;;;;;4938857;28;20086;-65
2023/05/03 08:28:47;;;;;;;4.35;1.95;;;7.30;99.90;;;;;;4942928;28;20141;-68
2023/05/03 08:31:15;;;;;;;2.60;1.30;;;7.10;99.90;;;;;;4943296;28;20040;-66
2023/05/03 08:33:42;;;;;;;2.28;1.45;;;7.20;99.90;;;;;;4946236;28;20121;-66
2023/05/03 08:36:09;;;;;;;2.15;1.17;;;7.40;99.90;;;;;;4943791;28;20103;-64
2023/05/03 08:38:40;;;;;;;2.10;1.52;;;7.40;99.90;;;;;;4955627;28;20130;-67
2023/05/03 08:41:28;;;;;;;2.13;1.95;;;7.50;99.90;;;;;;4941904;28;20051;-65
2023/05/03 08:43:58;;;;;;;3.97;2.58;;;7.50;99.90;;;;;;4943507;28;20085;-62
2023/05/03 08:46:26;;;;;;;2.83;1.25;;;7.50;99.90;;;;;;4928325;28;20047;-67
2023/05/03 08:48:54;;;;;;;1.60;1.27;;;7.60;99.90;;;;;;4923111;29;20054;-65
2023/05/03 08:51:22;;;;;;;3.45;2.13;;;7.50;99.90;;;;;;4930019;28;20067;-75
2023/05/03 08:53:49;;;;;;;1.70;1.45;;;7.50;99.90;;;;;;4927375;28;20051;-70
2023/05/03 08:56:32;;;;;;;2.70;1.40;;;7.50;99.90;;;;;;4942757;28;20046;-69
2023/05/03 08:59:06;;;;;;;3.20;2.25;;;7.60;99.90;;;;;;4926600;28;20062;-66
2023/05/03 09:01:35;;;;;;;1.35;1.25;;;7.80;99.90;;;;;;4927158;28;20056;-71
2023/05/03 09:04:03;;;;;;;4.27;1.60;;;7.70;99.90;;;;;;4928289;28;20153;-62
2023/05/03 09:06:32;;;;;;;2.67;1.73;;;7.50;99.90;;;;;;4918497;28;20337;-76
2023/05/03 09:08:59;;;;;;;1.83;1.30;;;7.60;99.90;;;;;;4942601;28;20461;-67
2023/05/03 09:11:30;;;;;;;3.65;1.80;;;7.50;99.90;;;;;;4941134;28;20057;-67
2023/05/03 09:14:11;;;;;;;2.60;1.52;;;7.70;99.90;;;;;;4945340;28;20073;-67
2023/05/03 09:16:39;;;;;;;3.67;1.80;;;7.90;99.90;;;;;;4943558;28;21071;-65
2023/05/03 09:19:11;;;;;;;1.92;1.67;;;7.90;99.90;;;;;;4935598;28;20071;-66
2023/05/03 09:21:39;;;;;;;2.85;2.50;;;7.80;99.90;;;;;;4936821;28;20057;-64
2023/05/03 09:24:20;;;;;;;1.30;1.02;;;7.80;99.90;;;;;;4941913;28;20065;-69
2023/05/03 09:26:50;;;;;;;2.85;1.98;;;7.80;99.90;;;;;;4938030;28;20054;-62
2023/05/03 09:29:31;;;;;;;4.13;1.88;;;7.70;99.90;;;;;;4945574;28;20065;-71
2023/05/03 09:32:00;;;;;;;5.95;2.03;;;7.70;99.90;;;;;;4957973;28;20705;-64
2023/05/03 09:34:27;;;;;;;3.25;1.55;;;8.00;99.90;;;;;;4943891;28;20073;-77
2023/05/03 09:36:55;;;;;;;4.05;1.52;;;8.10;99.90;;;;;;4947612;28;20051;-64
2023/05/03 09:39:21;;;;;;;4.78;2.25;;;8.00;99.90;;;;;;4946182;28;20057;-66
2023/05/03 09:41:49;;;;;;;2.83;1.27;;;7.80;99.90;;;;;;4939892;28;20059;-74
2023/05/03 09:44:16;;;;;;;2.40;2.17;;;7.80;99.90;;;;;;4941087;28;20162;-64
2023/05/03 09:47:05;;;;;;;3.75;1.67;;;8.10;99.90;;;;;;4940324;28;20560;-72
2023/05/03 09:49:33;;;;;;;1.55;1.35;;;8.30;99.90;;;;;;4951333;28;20063;-68
2023/05/03 09:52:01;;;;;;;1.08;1.00;;;8.20;99.90;;;;;;4940336;28;20131;-64
2023/05/03 09:54:32;;;;;;;2.35;1.60;;;8.00;99.90;;;;;;4945536;28;20073;-70
2023/05/03 09:57:01;;;;;;;2.92;1.52;;;8.20;99.90;;;;;;4945166;28;20047;-76
2023/05/03 09:59:28;;;;;;;3.33;2.38;;;8.20;99.90;;;;;;4943408;28;20494;-68
2023/05/03 10:02:00;;;;;;;5.15;1.73;;;8.20;99.90;;;;;;4937448;28;20553;-63
2023/05/03 10:04:31;;;;;;;2.60;1.70;;;8.20;99.90;;;;;;4945256;28;20051;-64
2023/05/03 10:07:03;;;;;;;2.05;1.13;;;8.40;99.90;;;;;;4942442;28;20210;-62
2023/05/03 10:09:39;;;;;;;1.90;1.67;;;8.40;99.90;;;;;;4937700;28;20056;-65
2023/05/03 10:12:11;;;;;;;2.53;1.52;;;8.40;99.90;;;;;;4939484;28;20047;-63
2023/05/03 10:14:43;;;;;;;1.60;1.40;;;8.30;99.90;;;;;;4935791;28;20463;-65
2023/05/03 10:17:32;;;;;;;1.95;1.75;;;8.30;99.90;;;;;;4942255;28;20055;-64
2023/05/03 10:20:35;;;;;;;1.45;1.35;;;8.50;99.90;;;;;;4940334;28;20071;-69
2023/05/03 10:23:06;;;;;;;1.48;1.20;;;8.70;99.90;;;;;;4942551;28;20051;-63
2023/05/03 10:25:34;;;;;;;1.75;1.58;;;8.80;99.90;;;;;;4944633;28;20138;-63
2023/05/03 10:28:02;;;;;;;2.05;1.65;;;8.70;99.90;;;;;;4943837;28;20130;-77
2023/05/03 10:30:33;;;;;;;3.70;1.30;;;8.70;99.90;;;;;;4939719;28;20473;-73
2023/05/03 10:33:12;;;;;;;1.65;1.50;;;8.70;99.90;;;;;;4943783;28;20507;-63
2023/05/03 10:35:42;;;;;;;2.42;2.20;;;8.80;99.90;;;;;;4944112;28;20500;-64
2023/05/03 10:38:16;;;;;;;4.00;1.52;;;8.70;99.90;;;;;;4945053;28;20043;-63
2023/05/03 10:40:43;;;;;;;1.77;1.30;;;8.70;99.90;;;;;;4939771;28;20056;-77
2023/05/03 10:43:29;;;;;;;4.88;1.67;;;8.70;99.90;;;;;;4926189;28;20479;-63
2023/05/03 10:45:59;;;;;;;2.55;1.70;;;8.50;99.90;;;;;;4932365;28;20066;-74
2023/05/03 10:48:27;;;;;;;4.35;1.50;;;8.60;99.90;;;;;;4930502;28;20048;-68
2023/05/03 10:50:55;;;;;;;2.97;2.28;;;8.80;99.90;;;;;;4939394;28;20132;-63
2023/05/03 10:53:42;;;;;;;1.95;1.58;;;8.70;99.90;;;;;;4945357;28;20086;-66
2023/05/03 10:56:11;;;;;;;3.28;1.60;;;8.80;99.90;;;;;;4946983;28;20047;-64
2023/05/03 10:58:45;;;;;;;2.25;1.63;;;9.00;99.90;;;;;;4943802;28;20525;-72
2023/05/03 11:01:15;;;;;;;3.33;1.90;;;8.90;99.90;;;;;;4942132;28;20047;-78
2023/05/03 11:03:50;;;;;;;3.13;1.30;;;9.00;99.90;;;;;;4945957;28;20051;-66
2023/05/03 11:06:36;;;;;;;4.20;1.50;;;8.90;99.90;;;;;;4943035;28;20073;-67
2023/05/03 11:09:06;;;;;;;4.05;1.38;;;9.00;99.90;;;;;;4939895;28;20438;-66
2023/05/03 11:11:35;;;;;;;3.90;1.30;;;9.20;99.90;;;;;;4938099;28;20503;-63
2023/05/03 11:14:02;;;;;;;1.75;1.25;;;9.40;99.90;;;;;;4940672;28;20062;-64
2023/05/03 11:16:30;;;;;;;1.60;1.08;;;9.40;99.90;;;;;;4939002;28;20051;-67
2023/05/03 11:18:58;;;;;;;1.88;1.73;;;9.30;99.90;;;;;;4947474;28;20051;-62
2023/05/03 11:21:25;;;;;;;2.10;1.42;;;9.40;99.90;;;;;;4943864;28;20055;-66
2023/05/03 11:23:53;;;;;;;2.78;1.98;;;9.40;99.90;;;;;;4950010;28;20433;-66
2023/05/03 11:26:24;;;;;;;3.72;1.13;;;9.30;99.90;;;;;;4945066;28;20091;-65
2023/05/03 11:28:53;;;;;;;1.50;1.00;;;9.40;99.90;;;;;;4951228;28;20555;-62
2023/05/03 11:31:20;;;;;;;2.63;1.40;;;9.40;99.90;;;;;;4952451;28;20047;-63
2023/05/03 11:33:48;;;;;;;3.67;1.83;;;9.50;99.90;;;;;;4950655;28;20528;-64
2023/05/03 11:36:15;;;;;;;2.83;1.25;;;9.50;99.90;;;;;;4948689;28;20051;-64
2023/05/03 11:38:42;;;;;;;1.52;1.10;;;9.60;99.90;;;;;;4943828;28;20099;-64
2023/05/03 11:41:16;;;;;;;3.17;1.42;;;9.60;99.90;;;;;;4948926;28;20062;-63
2023/05/03 11:43:45;;;;;;;2.78;1.80;;;9.80;99.90;;;;;;4947243;28;20138;-66
2023/05/03 11:46:24;;;;;;;2.53;2.08;;;9.90;99.90;;;;;;4943131;28;20138;-65
2023/05/03 11:48:51;;;;;;;2.45;1.35;;;10.10;99.90;;;;;;4944076;28;20145;-65
2023/05/03 11:51:22;;;;;;;2.83;1.50;;;10.00;99.90;;;;;;4947165;28;20094;-63
2023/05/03 11:53:50;;;;;;;1.95;1.40;;;10.00;99.90;;;;;;4940074;28;20055;-67
2023/05/03 11:56:19;;;;;;;2.80;2.55;;;10.30;99.90;;;;;;4942959;28;20051;-64
2023/05/03 11:58:54;;;;;;;5.90;1.73;;;10.50;99.90;;;;;;4944365;28;20056;-65
2023/05/03 12:01:27;;;;;;;2.22;1.90;;;10.70;99.90;;;;;;4936566;28;20478;-63
2023/05/03 12:03:58;;;;;;;4.18;1.60;;;10.60;99.90;;;;;;4929003;28;20069;-68
2023/05/03 12:06:27;;;;;;;3.10;1.50;;;10.40;99.90;;;;;;4921099;29;20056;-66
2023/05/03 12:08:55;;;;;;;2.55;1.38;;;10.30;99.90;;;;;;4934661;28;20054;-64
2023/05/03 12:11:24;;;;;;;1.65;0.90;;;10.50;99.90;;;;;;4940548;28;20055;-65
2023/05/03 12:13:58;;;;;;;1.92;1.08;;;10.50;99.90;;;;;;4946022;28;20517;-69
2023/05/03 12:16:26;;;;;;;1.00;0.88;;;10.50;99.90;;;;;;4929791;29;20438;-64
2023/05/03 12:18:56;;;;;;;1.55;1.27;;;10.60;99.90;;;;;;4943577;28;20071;-63
2023/05/03 12:21:25;;;;;;;5.03;1.42;;;10.50;99.90;;;;;;4939181;28;20070;-63
2023/05/03 12:23:55;;;;;;;1.33;1.10;;;10.60;99.90;;;;;;4948091;28;20041;-67
2023/05/03 12:26:25;;;;;;;1.38;1.27;;;10.70;99.90;;;;;;4950345;28;20058;-64
2023/05/03 12:28:52;;;;;;;1.65;1.27;;;10.90;99.90;;;;;;4948529;28;20047;-67
2023/05/03 12:31:22;;;;;;;1.70;1.35;;;10.50;99.90;;;;;;4946796;28;20075;-65
2023/05/03 12:33:49;;;;;;;2.92;1.33;;;10.50;99.90;;;;;;4960346;28;20118;-66
2023/05/03 12:36:20;;;;;;;1.58;0.93;;;10.90;99.90;;;;;;4961970;28;20039;-76
2023/05/03 12:38:51;;;;;;;2.50;1.63;;;10.90;99.90;;;;;;4947981;28;20074;-63
2023/05/03 12:41:24;;;;;;;1.70;1.08;;;10.70;99.90;;;;;;4943545;28;20505;-67
2023/05/03 12:43:55;;;;;;;1.45;0.75;;;10.90;99.90;;;;;;4943796;28;20071;-66
2023/05/03 12:46:26;;;;;;;4.80;1.38;;;10.80;99.90;;;;;;4944118;28;20070;-63
2023/05/03 12:49:01;;;;;;;2.90;1.08;;;11.00;99.90;;;;;;4937097;28;20058;-72
2023/05/03 12:51:32;;;;;;;1.63;0.80;;;11.00;99.90;;;;;;4957158;28;20408;-67
2023/05/03 12:54:00;;;;;;;1.45;0.80;;;11.00;99.90;;;;;;4954003;28;20090;-66
2023/05/03 12:56:28;;;;;;;1.88;0.98;;;10.60;99.90;;;;;;4943618;28;20063;-66
2023/05/03 12:58:59;;;;;;;0.40;0.30;;;10.70;99.90;;;;;;4941910;28;20047;-63
2023/05/03 13:01:28;;;;;;;1.10;0.77;;;10.90;99.90;;;;;;4940904;28;20044;-66
2023/05/03 13:03:58;;;;;;;2.72;2.50;;;10.90;99.90;;;;;;4946648;28;20055;-64
2023/05/03 13:06:45;;;;;;;1.90;0.80;;;11.10;99.90;;;;;;4944767;28;20441;-67